createdAt,value
2019-02-20T00:01:12.491Z,15.73
2019-02-20T00:06:18.088Z,19.30
2019-02-20T00:11:24.125Z,15.80
2019-02-20T00:16:32.187Z,16.17
2019-02-20T00:21:39.529Z,16.73
2019-02-20T00:26:46.163Z,17.63
2019-02-20T00:31:54.121Z,17.20
2019-02-20T00:37:08.219Z,25.40
2019-02-20T00:42:14.039Z,20.93
2019-02-20T00:47:35.628Z,17.10
2019-02-20T00:52:51.851Z,18.77
2019-02-20T00:58:00.097Z,24.53
2019-02-20T01:03:06.364Z,15.90
2019-02-20T01:08:15.277Z,18.87
2019-02-20T01:13:20.930Z,21.73
2019-02-20T01:18:26.987Z,21.23
2019-02-20T01:23:36.778Z,20.53
2019-02-20T01:28:45.235Z,22.00
2019-02-20T01:33:51.972Z,21.43
2019-02-20T01:39:04.445Z,19.37
2019-02-20T01:44:13.554Z,21.17
2019-02-20T01:49:24.516Z,25.27
2019-02-20T01:54:38.809Z,16.97
2019-02-20T01:59:52.377Z,23.80
2019-02-20T02:04:57.783Z,23.33
2019-02-20T02:10:03.819Z,21.07
2019-02-20T02:15:20.019Z,24.63
2019-02-20T02:20:20.361Z,19.77
2019-02-20T02:25:26.367Z,21.80
2019-02-20T02:30:32.130Z,21.17
2019-02-20T02:35:37.725Z,21.10
2019-02-20T02:40:47.046Z,24.43
2019-02-20T02:45:59.402Z,24.23
2019-02-20T02:51:03.639Z,24.50
2019-02-20T02:56:09.373Z,19.80
2019-02-20T03:01:15.005Z,22.83
2019-02-20T03:06:22.950Z,22.80
2019-02-20T03:11:28.576Z,25.70
2019-02-20T03:16:39.848Z,24.30
2019-02-20T03:21:51.910Z,19.60
2019-02-20T03:26:58.023Z,25.63
2019-02-20T03:32:06.179Z,19.20
2019-02-20T03:37:13.569Z,20.67
2019-02-20T03:42:21.531Z,18.20
2019-02-20T03:47:32.221Z,24.20
2019-02-20T03:52:37.905Z,20.67
2019-02-20T03:57:46.681Z,20.33
2019-02-20T04:02:55.117Z,17.33
2019-02-20T04:08:05.496Z,22.70
2019-02-20T04:13:14.030Z,20.87
2019-02-20T04:18:20.318Z,21.30
2019-02-20T04:23:27.849Z,22.17
2019-02-20T04:28:36.525Z,24.77
2019-02-20T04:33:44.022Z,29.37
2019-02-20T04:38:51.594Z,24.90
2019-02-20T04:43:57.267Z,20.97
2019-02-20T04:49:05.672Z,22.63
2019-02-20T04:54:13.631Z,25.47
2019-02-20T04:59:18.612Z,25.30
2019-02-20T05:04:25.868Z,21.10
2019-02-20T05:09:31.826Z,26.17
2019-02-20T05:14:37.396Z,23.30
2019-02-20T05:19:43.060Z,26.67
2019-02-20T05:24:50.741Z,26.20
2019-02-20T05:29:56.375Z,22.00
2019-02-20T05:35:08.609Z,24.53
2019-02-20T05:40:14.342Z,24.27
2019-02-20T05:45:20.176Z,24.10
2019-02-20T05:50:25.839Z,21.63
2019-02-20T05:55:40.467Z,22.77
2019-02-20T06:00:46.047Z,27.60
2019-02-20T06:05:51.616Z,25.50
2019-02-20T06:10:58.437Z,26.07
2019-02-20T06:16:07.639Z,19.60
2019-02-20T06:21:16.382Z,23.80
2019-02-20T06:26:23.369Z,25.77
2019-02-20T06:31:30.320Z,22.67
2019-02-20T06:36:37.939Z,22.40
2019-02-20T06:41:47.707Z,21.13
2019-02-20T06:46:53.394Z,25.63
2019-02-20T06:51:59.482Z,23.10
2019-02-20T06:57:09.238Z,23.93
2019-02-20T07:02:15.107Z,19.83
2019-02-20T07:07:57.732Z,21.37
2019-02-20T07:13:37.704Z,19.90
2019-02-20T07:19:23.424Z,22.30
2019-02-20T07:25:03.943Z,22.33
2019-02-20T07:30:15.002Z,32.27
2019-02-20T07:35:21.967Z,20.60
2019-02-20T07:40:28.600Z,24.07
2019-02-20T07:45:36.240Z,19.23
2019-02-20T07:50:42.379Z,29.57
2019-02-20T07:55:49.299Z,19.90
2019-02-20T08:00:54.968Z,24.00
2019-02-20T08:06:01.029Z,26.87
2019-02-20T08:11:11.449Z,21.53
2019-02-20T08:16:20.689Z,23.10
2019-02-20T08:21:27.812Z,24.27
2019-02-20T08:26:35.959Z,25.13
2019-02-20T08:31:44.369Z,23.43
2019-02-20T08:36:59.742Z,21.20
2019-02-20T08:42:11.135Z,25.67
2019-02-20T08:47:16.752Z,30.40
2019-02-20T08:52:23.376Z,25.47
2019-02-20T08:57:29.043Z,19.03
2019-02-20T09:02:35.066Z,19.20
2019-02-20T09:07:40.794Z,17.50
2019-02-20T09:12:47.926Z,19.43
2019-02-20T09:17:55.426Z,26.63
2019-02-20T09:23:00.999Z,21.77
2019-02-20T09:28:07.447Z,23.00
2019-02-20T09:33:16.442Z,19.80
2019-02-20T09:38:22.022Z,33.17
2019-02-20T09:43:33.756Z,20.77
2019-02-20T09:48:39.400Z,22.50
2019-02-20T09:53:51.326Z,22.67
2019-02-20T09:58:58.941Z,27.17
2019-02-20T10:04:06.178Z,27.47
2019-02-20T10:09:14.241Z,24.93
2019-02-20T10:14:20.105Z,29.30
2019-02-20T10:19:25.818Z,24.70
2019-02-20T10:24:34.504Z,27.13
2019-02-20T10:29:41.765Z,23.33
2019-02-20T10:34:49.101Z,22.43
2019-02-20T10:39:57.042Z,23.53
2019-02-20T10:45:09.244Z,23.63
2019-02-20T10:50:18.719Z,27.33
2019-02-20T10:55:24.386Z,22.60
2019-02-20T11:00:31.931Z,22.30
2019-02-20T11:05:37.631Z,21.30
2019-02-20T11:10:44.454Z,22.40
2019-02-20T11:15:53.728Z,15.83
2019-02-20T11:21:01.174Z,17.93
2019-02-20T11:26:17.856Z,22.90
2019-02-20T11:31:25.047Z,18.43
2019-02-20T11:36:30.723Z,16.17
2019-02-20T11:41:36.428Z,21.53
2019-02-20T11:51:53.213Z,16.03
2019-02-20T11:56:58.958Z,18.70
2019-02-20T12:02:07.709Z,16.63
2019-02-20T12:07:17.666Z,16.03
2019-02-20T12:12:27.329Z,17.27
2019-02-20T12:17:38.622Z,17.00
2019-02-20T12:22:45.983Z,13.13
2019-02-20T12:27:51.598Z,14.53
2019-02-20T12:32:59.706Z,15.97
2019-02-20T12:38:08.766Z,16.30
2019-02-20T12:43:17.611Z,15.47
2019-02-20T12:48:23.434Z,10.80
2019-02-20T12:53:36.106Z,6.50
2019-02-20T12:58:51.224Z,7.67
2019-02-20T13:03:56.396Z,12.00
2019-02-20T13:14:10.585Z,13.47
2019-02-20T13:19:18.942Z,8.73
2019-02-20T13:24:24.856Z,8.33
2019-02-20T13:29:31.472Z,8.00
2019-02-20T13:34:37.677Z,15.07
2019-02-20T13:39:52.138Z,14.73
2019-02-20T13:44:57.660Z,8.50
2019-02-20T13:50:03.547Z,8.80
2019-02-20T13:55:14.239Z,10.07
2019-02-20T14:00:23.285Z,10.60
2019-02-20T14:05:29.117Z,15.07
2019-02-20T14:10:38.063Z,13.70
2019-02-20T14:15:45.597Z,12.03
2019-02-20T14:20:54.331Z,20.80
2019-02-20T14:26:00.069Z,9.00
2019-02-20T14:31:11.997Z,12.40
2019-02-20T14:36:19.851Z,16.07
2019-02-20T14:41:30.433Z,15.53
2019-02-20T14:46:37.019Z,9.93
2019-02-20T14:51:42.768Z,11.50
2019-02-20T14:56:50.769Z,10.60
2019-02-20T15:01:56.484Z,12.93
2019-02-20T15:07:09.653Z,15.97
2019-02-20T15:12:21.084Z,13.60
2019-02-20T15:17:32.788Z,13.87
2019-02-20T15:22:39.892Z,12.00
2019-02-20T15:27:48.932Z,12.33
2019-02-20T15:32:54.724Z,7.10
2019-02-20T15:38:02.929Z,14.23
2019-02-20T15:43:12.214Z,12.00
2019-02-20T15:48:23.634Z,7.17
2019-02-20T15:53:29.374Z,8.83
2019-02-20T15:58:35.579Z,9.17
2019-02-20T16:03:43.541Z,10.40
2019-02-20T16:08:52.459Z,10.40
2019-02-20T16:13:58.192Z,9.53
2019-02-20T16:19:11.337Z,14.03
2019-02-20T16:24:26.035Z,12.00
2019-02-20T16:29:31.760Z,17.87
2019-02-20T16:34:38.025Z,9.87
2019-02-20T16:39:52.902Z,8.77
2019-02-20T16:45:00.608Z,13.90
2019-02-20T16:50:07.032Z,20.90
2019-02-20T16:55:19.143Z,20.30
2019-02-20T17:00:29.883Z,18.77
2019-02-20T17:05:40.261Z,15.63
2019-02-20T17:10:46.019Z,19.70
2019-02-20T17:15:58.884Z,20.23
2019-02-20T17:21:05.245Z,16.27
2019-02-20T17:26:11.590Z,24.63
2019-02-20T17:31:23.903Z,19.90
2019-02-20T17:36:29.823Z,10.90
2019-02-20T17:41:41.140Z,12.03
2019-02-20T17:46:46.871Z,11.23
2019-02-20T17:51:54.250Z,11.97
2019-02-20T17:57:01.286Z,12.57
2019-02-20T18:02:10.186Z,11.40
2019-02-20T18:07:17.237Z,12.13
2019-02-20T18:12:25.323Z,13.83
2019-02-20T18:17:31.443Z,14.90
2019-02-20T18:22:47.734Z,12.50
2019-02-20T18:27:55.342Z,17.23
2019-02-20T18:33:04.782Z,13.30
2019-02-20T18:38:11.599Z,16.37
2019-02-20T18:43:21.068Z,11.17
2019-02-20T18:48:27.920Z,17.23
2019-02-20T18:53:38.320Z,13.80
2019-02-20T18:58:45.089Z,16.40
2019-02-20T19:03:56.714Z,19.30
2019-02-20T19:09:23.713Z,19.63
2019-02-20T19:14:47.423Z,19.33
2019-02-20T19:20:06.775Z,16.23
2019-02-20T19:25:48.416Z,31.90
2019-02-20T19:31:49.213Z,16.30
2019-02-20T19:37:38.052Z,19.50
2019-02-20T19:43:29.859Z,22.07
2019-02-20T19:49:18.306Z,19.90
2019-02-20T19:54:48.861Z,12.87
2019-02-20T20:00:49.478Z,19.27
2019-02-20T20:06:33.210Z,14.47
2019-02-20T20:12:22.222Z,15.70
2019-02-20T20:18:13.159Z,21.33
2019-02-20T20:24:11.041Z,17.17
2019-02-20T20:30:09.045Z,20.07
2019-02-20T20:36:03.205Z,21.93
2019-02-20T20:41:25.685Z,19.13
2019-02-20T20:47:09.447Z,20.60
2019-02-20T20:52:59.208Z,30.43
2019-02-20T20:58:39.990Z,19.37
2019-02-20T21:04:37.104Z,23.73
2019-02-20T21:10:10.187Z,17.27
2019-02-20T21:16:21.569Z,21.90
2019-02-20T21:22:05.121Z,21.20
2019-02-20T21:27:51.226Z,21.70
2019-02-20T21:33:52.928Z,20.60
2019-02-20T21:39:30.399Z,17.93
2019-02-20T21:45:35.260Z,17.33
2019-02-20T21:51:06.275Z,21.70
2019-02-20T21:56:52.608Z,18.50
2019-02-20T22:02:36.076Z,23.47
2019-02-20T22:08:20.701Z,20.30
2019-02-20T22:14:02.614Z,17.97
2019-02-20T22:19:31.988Z,16.30
2019-02-20T22:25:00.276Z,23.57
2019-02-20T22:30:50.725Z,19.80
2019-02-20T22:36:40.450Z,22.13
2019-02-20T22:42:14.860Z,20.83
2019-02-20T22:47:53.886Z,21.73
2019-02-20T22:53:45.994Z,22.40
2019-02-20T22:59:36.417Z,20.50
2019-02-20T23:05:21.449Z,19.13
2019-02-20T23:11:10.691Z,18.67
2019-02-20T23:16:16.680Z,28.10
2019-02-20T23:21:22.296Z,21.67
2019-02-20T23:26:33.293Z,33.47
2019-02-20T23:31:39.507Z,22.80
2019-02-20T23:36:45.570Z,23.17
2019-02-20T23:41:53.136Z,24.80
2019-02-20T23:52:56.019Z,24.07
2019-02-20T23:58:10.862Z,26.67
